createdAt,value
2022-12-16T00:01:27.006Z,-5.10
2022-12-16T00:03:55.343Z,-5.10
2022-12-16T00:06:23.153Z,-5.10
2022-12-16T00:08:49.747Z,-5.20
2022-12-16T00:11:20.773Z,-5.30
2022-12-16T00:13:47.642Z,-5.30
2022-12-16T00:16:16.020Z,-5.30
2022-12-16T00:18:42.650Z,-5.30
2022-12-16T00:21:09.731Z,-5.30
2022-12-16T00:23:39.424Z,-5.40
2022-12-16T00:26:06.047Z,-5.50
2022-12-16T00:28:32.614Z,-5.50
2022-12-16T00:30:59.196Z,-5.50
2022-12-16T00:33:26.497Z,-5.40
2022-12-16T00:35:53.820Z,-5.40
2022-12-16T00:38:22.012Z,-5.30
2022-12-16T00:40:52.145Z,-5.40
2022-12-16T00:43:19.620Z,-5.40
2022-12-16T00:45:46.821Z,-5.40
2022-12-16T00:48:16.223Z,-5.40
2022-12-16T00:50:52.042Z,-5.40
2022-12-16T00:53:19.388Z,-5.40
2022-12-16T00:55:48.442Z,-5.30
2022-12-16T00:58:15.074Z,-5.40
2022-12-16T01:00:41.672Z,-5.40
2022-12-16T01:03:08.747Z,-5.40
2022-12-16T01:05:37.574Z,-5.50
2022-12-16T01:08:04.228Z,-5.60
2022-12-16T01:10:30.737Z,-5.60
2022-12-16T01:12:57.297Z,-5.70
2022-12-16T01:15:23.883Z,-5.80
2022-12-16T01:17:52.829Z,-5.80
2022-12-16T01:20:26.567Z,-5.80
2022-12-16T01:22:53.129Z,-5.80
2022-12-16T01:25:26.337Z,-5.90
2022-12-16T01:27:55.060Z,-5.90
2022-12-16T01:30:21.875Z,-5.90
2022-12-16T01:32:48.547Z,-5.90
2022-12-16T01:35:44.219Z,-5.80
2022-12-16T01:38:01.681Z,-5.80
2022-12-16T01:40:31.864Z,-5.80
2022-12-16T01:42:58.388Z,-5.90
2022-12-16T01:45:24.960Z,-6.00
2022-12-16T01:47:56.006Z,-6.00
2022-12-16T01:50:22.719Z,-6.10
2022-12-16T01:52:55.870Z,-6.00
2022-12-16T01:55:25.037Z,-6.00
2022-12-16T01:57:56.773Z,-6.00
2022-12-16T02:00:25.848Z,-6.00
2022-12-16T02:02:55.920Z,-5.90
2022-12-16T02:05:23.097Z,-5.90
2022-12-16T02:08:06.446Z,-5.80
2022-12-16T02:10:43.912Z,-5.80
2022-12-16T02:13:19.492Z,-5.70
2022-12-16T02:15:52.097Z,-5.80
2022-12-16T02:18:38.870Z,-5.90
2022-12-16T02:21:05.494Z,-5.90
2022-12-16T02:23:52.619Z,-5.90
2022-12-16T02:26:22.826Z,-6.00
2022-12-16T02:28:52.428Z,-5.90
2022-12-16T02:31:27.239Z,-5.90
2022-12-16T02:33:56.645Z,-5.90
2022-12-16T02:36:27.844Z,-5.90
2022-12-16T02:39:26.910Z,-5.90
2022-12-16T02:42:12.269Z,-5.90
2022-12-16T02:44:41.844Z,-5.90
2022-12-16T02:47:08.452Z,-5.90
2022-12-16T02:49:34.961Z,-5.90
2022-12-16T02:52:04.144Z,-5.90
2022-12-16T02:54:32.939Z,-5.90
2022-12-16T02:57:08.422Z,-5.90
2022-12-16T02:59:48.775Z,-5.90
2022-12-16T03:02:20.918Z,-5.90
2022-12-16T03:04:56.484Z,-5.90
2022-12-16T03:07:25.362Z,-5.90
2022-12-16T03:09:52.976Z,-5.90
2022-12-16T03:12:21.871Z,-6.00
2022-12-16T03:14:49.818Z,-6.00
2022-12-16T03:17:17.014Z,-6.00
2022-12-16T03:19:46.165Z,-6.10
2022-12-16T03:22:17.135Z,-6.20
2022-12-16T03:24:43.784Z,-6.20
2022-12-16T03:27:16.170Z,-6.20
2022-12-16T03:29:46.655Z,-6.20
2022-12-16T03:32:23.442Z,-6.20
2022-12-16T03:34:55.135Z,-6.20
2022-12-16T03:37:24.241Z,-6.30
2022-12-16T03:39:52.914Z,-6.30
2022-12-16T03:42:19.567Z,-6.30
2022-12-16T03:44:52.193Z,-6.30
2022-12-16T03:47:23.718Z,-6.30
2022-12-16T03:49:50.940Z,-6.40
2022-12-16T03:52:19.660Z,-6.40
2022-12-16T03:54:48.697Z,-6.40
2022-12-16T03:57:17.548Z,-6.40
2022-12-16T03:59:44.038Z,-6.40
2022-12-16T04:02:15.553Z,-6.40
2022-12-16T04:04:42.231Z,-6.50
2022-12-16T04:07:21.040Z,-6.50
2022-12-16T04:09:51.067Z,-6.50
2022-12-16T04:12:36.285Z,-6.50
2022-12-16T04:15:22.260Z,-6.50
2022-12-16T04:18:07.552Z,-6.50
2022-12-16T04:20:55.252Z,-6.50
2022-12-16T04:23:41.942Z,-6.60
2022-12-16T04:26:08.748Z,-6.50
2022-12-16T04:28:37.433Z,-6.50
2022-12-16T04:31:04.254Z,-6.50
2022-12-16T04:33:49.679Z,-6.50
2022-12-16T04:36:34.636Z,-6.50
2022-12-16T04:39:20.053Z,-6.50
2022-12-16T04:42:05.479Z,-6.50
2022-12-16T04:44:50.426Z,-6.50
2022-12-16T04:47:35.865Z,-6.50
2022-12-16T04:50:21.069Z,-6.50
2022-12-16T04:53:09.109Z,-6.50
2022-12-16T04:55:56.831Z,-6.50
2022-12-16T04:58:45.655Z,-6.50
2022-12-16T05:01:31.040Z,-6.50
2022-12-16T05:04:16.457Z,-6.50
2022-12-16T05:07:01.763Z,-6.50
2022-12-16T05:09:47.225Z,-6.50
2022-12-16T05:12:34.911Z,-6.50
2022-12-16T05:15:20.269Z,-6.50
2022-12-16T05:18:05.702Z,-6.50
2022-12-16T05:20:50.852Z,-6.50
2022-12-16T05:23:36.347Z,-6.60
2022-12-16T05:26:21.541Z,-6.50
2022-12-16T05:29:06.482Z,-6.60
2022-12-16T05:31:51.560Z,-6.60
2022-12-16T05:34:36.820Z,-6.60
2022-12-16T05:37:22.136Z,-6.70
2022-12-16T05:40:11.671Z,-6.60
2022-12-16T05:42:56.754Z,-6.70
2022-12-16T05:45:42.215Z,-6.70
2022-12-16T05:48:27.257Z,-6.70
2022-12-16T05:51:12.655Z,-6.80
2022-12-16T05:53:58.131Z,-6.70
2022-12-16T05:56:43.148Z,-6.70
2022-12-16T05:59:28.484Z,-6.70
2022-12-16T06:02:13.810Z,-6.70
2022-12-16T06:04:59.042Z,-6.70
2022-12-16T06:07:44.275Z,-6.70
2022-12-16T06:10:29.649Z,-6.70
2022-12-16T06:13:14.798Z,-6.80
2022-12-16T06:16:05.152Z,-6.80
2022-12-16T06:18:53.576Z,-6.70
2022-12-16T06:21:40.405Z,-6.70
2022-12-16T06:24:25.494Z,-6.70
2022-12-16T06:27:10.946Z,-6.70
2022-12-16T06:29:56.406Z,-6.70
2022-12-16T06:32:41.347Z,-6.70
2022-12-16T06:35:26.671Z,-6.70
2022-12-16T06:38:11.945Z,-6.70
2022-12-16T06:40:57.129Z,-6.70
2022-12-16T06:43:42.550Z,-6.80
2022-12-16T06:46:30.409Z,-6.90
2022-12-16T06:49:15.748Z,-6.90
2022-12-16T06:52:00.876Z,-6.90
2022-12-16T06:54:46.161Z,-6.90
2022-12-16T06:57:31.479Z,-6.90
2022-12-16T07:00:16.457Z,-6.90
2022-12-16T07:03:21.843Z,-6.90
2022-12-16T07:06:10.496Z,-6.90
2022-12-16T07:08:55.677Z,-6.90
2022-12-16T07:11:43.429Z,-6.90
2022-12-16T07:14:28.885Z,-6.90
2022-12-16T07:17:17.240Z,-6.90
2022-12-16T07:20:02.763Z,-6.90
2022-12-16T07:22:51.157Z,-6.90
2022-12-16T07:25:43.910Z,-6.90
2022-12-16T07:28:29.070Z,-6.90
2022-12-16T07:31:14.575Z,-6.90
2022-12-16T07:33:59.584Z,-6.90
2022-12-16T07:36:44.600Z,-6.90
2022-12-16T07:39:32.469Z,-7.00
2022-12-16T07:42:17.890Z,-7.00
2022-12-16T07:45:03.447Z,-6.90
2022-12-16T07:47:48.510Z,-6.90
2022-12-16T07:50:33.596Z,-6.80
2022-12-16T07:53:19.183Z,-6.80
2022-12-16T07:56:04.294Z,-6.90
2022-12-16T07:58:49.654Z,-6.90
2022-12-16T08:01:35.140Z,-6.90
2022-12-16T08:04:20.540Z,-6.80
2022-12-16T08:07:05.973Z,-6.80
2022-12-16T08:10:05.207Z,-6.80
2022-12-16T08:12:50.579Z,-6.80
2022-12-16T08:15:35.820Z,-6.80
2022-12-16T08:18:21.293Z,-6.80
2022-12-16T08:21:06.327Z,-6.80
2022-12-16T08:23:51.889Z,-6.80
2022-12-16T08:26:37.273Z,-6.80
2022-12-16T08:29:43.804Z,-6.80
2022-12-16T08:32:29.804Z,-6.90
2022-12-16T08:35:15.193Z,-6.80
2022-12-16T08:38:00.619Z,-6.80
2022-12-16T08:40:45.627Z,-6.80
2022-12-16T08:43:31.369Z,-6.80
2022-12-16T08:46:16.826Z,-6.70
2022-12-16T08:49:04.499Z,-6.60
2022-12-16T08:51:49.631Z,-6.60
2022-12-16T08:54:34.911Z,-6.40
2022-12-16T08:57:19.841Z,-6.40
2022-12-16T09:00:07.399Z,-6.30
2022-12-16T09:02:52.951Z,-6.30
2022-12-16T09:05:41.035Z,-6.20
2022-12-16T09:08:25.990Z,-6.20
2022-12-16T09:11:11.460Z,-6.10
2022-12-16T09:13:56.845Z,-6.10
2022-12-16T09:16:41.983Z,-6.00
2022-12-16T09:19:28.672Z,-6.00
2022-12-16T09:22:13.903Z,-5.80
2022-12-16T09:25:01.471Z,-5.70
2022-12-16T09:27:46.627Z,-5.60
2022-12-16T09:30:45.235Z,-5.40
2022-12-16T09:33:31.387Z,-5.30
2022-12-16T09:36:16.964Z,-5.20
2022-12-16T09:39:02.313Z,-5.10
2022-12-16T09:42:01.327Z,-5.10
2022-12-16T09:44:49.537Z,-5.20
2022-12-16T09:47:41.099Z,-5.20
2022-12-16T09:50:35.445Z,-5.10
2022-12-16T09:53:22.355Z,-4.90
2022-12-16T09:56:07.470Z,-4.90
2022-12-16T09:58:58.232Z,-5.00
2022-12-16T10:01:46.102Z,-4.90
2022-12-16T10:04:31.585Z,-4.90
2022-12-16T10:07:18.197Z,-4.90
2022-12-16T10:10:03.247Z,-4.90
2022-12-16T10:12:55.478Z,-5.00
2022-12-16T10:15:50.189Z,-4.90
2022-12-16T10:18:54.383Z,-4.80
2022-12-16T10:21:46.841Z,-4.70
2022-12-16T10:24:35.106Z,-4.50
2022-12-16T10:27:25.553Z,-4.40
2022-12-16T10:30:10.880Z,-4.30
2022-12-16T10:33:06.189Z,-4.20
2022-12-16T10:36:03.545Z,-4.10
2022-12-16T10:39:01.057Z,-4.00
2022-12-16T10:41:58.263Z,-4.00
2022-12-16T10:44:54.566Z,-3.90
2022-12-16T10:47:43.511Z,-3.90
2022-12-16T10:50:32.388Z,-3.80
2022-12-16T10:53:19.248Z,-3.80
2022-12-16T10:56:16.438Z,-3.80
2022-12-16T10:59:05.079Z,-3.80
2022-12-16T11:01:50.803Z,-3.60
2022-12-16T11:04:48.516Z,-3.50
2022-12-16T11:07:52.787Z,-3.40
2022-12-16T11:10:41.179Z,-3.40
2022-12-16T11:13:46.421Z,-3.20
2022-12-16T11:16:31.502Z,-3.10
2022-12-16T11:19:17.241Z,-3.00
2022-12-16T11:22:03.949Z,-2.80
2022-12-16T11:24:49.512Z,-2.70
2022-12-16T11:27:40.449Z,-2.60
2022-12-16T11:30:32.103Z,-2.50
2022-12-16T11:33:18.318Z,-2.40
2022-12-16T11:36:05.846Z,-2.30
2022-12-16T11:38:57.572Z,-2.20
2022-12-16T11:41:47.942Z,-2.10
2022-12-16T11:44:42.148Z,-1.90
2022-12-16T11:47:56.901Z,-1.80
2022-12-16T11:50:43.825Z,-1.80
2022-12-16T11:53:50.437Z,-1.70
2022-12-16T11:59:24.923Z,-1.50
2022-12-16T12:02:18.117Z,-1.40
2022-12-16T12:05:03.625Z,-1.30
2022-12-16T12:08:10.874Z,-1.30
2022-12-16T12:11:15.047Z,-1.20
2022-12-16T12:14:19.275Z,-1.10
2022-12-16T12:17:10.476Z,-1.00
2022-12-16T12:20:18.550Z,-0.90
2022-12-16T12:23:06.102Z,-0.80
2022-12-16T12:25:56.995Z,-0.70
2022-12-16T12:28:46.204Z,-0.70
2022-12-16T12:31:41.869Z,-0.70
2022-12-16T12:34:30.402Z,-0.60
2022-12-16T12:37:21.527Z,-0.50
2022-12-16T12:40:12.213Z,-0.40
2022-12-16T12:43:11.823Z,-0.40
2022-12-16T12:46:06.438Z,-0.30
2022-12-16T12:49:26.991Z,-0.20
2022-12-16T12:52:24.293Z,-0.20
2022-12-16T12:55:19.085Z,-0.10
2022-12-16T12:58:05.735Z,-0.10
2022-12-16T13:00:54.043Z,-0.10
2022-12-16T13:03:51.044Z,-0.10
2022-12-16T13:06:36.664Z,-0.10
2022-12-16T13:09:22.690Z,-0.10
2022-12-16T13:12:33.665Z,-0.10
2022-12-16T13:15:21.938Z,-0.20
2022-12-16T13:18:19.464Z,-0.20
2022-12-16T13:21:05.697Z,-0.20
2022-12-16T13:23:57.844Z,0.00
2022-12-16T13:26:46.593Z,0.00
2022-12-16T13:29:44.089Z,-0.10
2022-12-16T13:32:32.401Z,0.00
2022-12-16T13:35:37.891Z,0.10
2022-12-16T13:38:23.250Z,0.10
2022-12-16T13:41:09.341Z,0.10
2022-12-16T13:44:13.684Z,0.10
2022-12-16T13:47:00.489Z,0.10
2022-12-16T13:49:55.026Z,0.00
2022-12-16T13:52:41.774Z,0.00
2022-12-16T13:55:48.926Z,-0.10
2022-12-16T13:58:53.179Z,-0.10
2022-12-16T14:01:41.461Z,-0.10
2022-12-16T14:04:28.870Z,-0.10
2022-12-16T14:07:22.840Z,-0.10
2022-12-16T14:10:12.442Z,0.00
2022-12-16T14:13:03.663Z,0.00
2022-12-16T14:15:57.288Z,-0.10
2022-12-16T14:18:51.755Z,-0.10
2022-12-16T14:21:40.981Z,0.00
2022-12-16T14:24:31.088Z,0.00
2022-12-16T14:27:17.369Z,0.00
2022-12-16T14:30:02.670Z,0.00
2022-12-16T14:32:47.814Z,0.00
2022-12-16T14:35:34.703Z,0.00
2022-12-16T14:38:39.122Z,0.00
2022-12-16T14:41:28.317Z,0.00
2022-12-16T14:44:13.411Z,0.00
2022-12-16T14:46:58.738Z,0.00
2022-12-16T14:49:48.163Z,0.00
2022-12-16T14:52:36.208Z,0.00
2022-12-16T14:55:32.270Z,-0.10
2022-12-16T14:58:43.622Z,0.00
2022-12-16T15:01:37.805Z,-0.10
2022-12-16T15:04:24.869Z,-0.10
2022-12-16T15:07:11.550Z,-0.10
2022-12-16T15:09:59.655Z,-0.10
2022-12-16T15:12:46.213Z,-0.10
2022-12-16T15:16:03.827Z,-0.20
2022-12-16T15:19:00.195Z,-0.10
2022-12-16T15:21:45.383Z,-0.20
2022-12-16T15:24:35.979Z,-0.20
2022-12-16T15:27:39.788Z,-0.20
2022-12-16T15:30:44.072Z,-0.20
2022-12-16T15:33:32.753Z,-0.30
2022-12-16T15:36:21.820Z,-0.30
2022-12-16T15:39:07.114Z,-0.40
2022-12-16T15:41:55.954Z,-0.40
2022-12-16T15:44:42.752Z,-0.40
2022-12-16T15:47:46.520Z,-0.40
2022-12-16T15:50:32.935Z,-0.40
2022-12-16T15:53:37.023Z,-0.40
2022-12-16T15:56:22.375Z,-0.40
2022-12-16T15:59:07.805Z,-0.40
2022-12-16T16:02:04.281Z,-0.40
2022-12-16T16:04:50.326Z,-0.40
2022-12-16T16:07:42.236Z,-0.50
2022-12-16T16:10:37.101Z,-0.40
2022-12-16T16:13:24.920Z,-0.40
2022-12-16T16:16:10.632Z,-0.40
2022-12-16T16:18:56.162Z,-0.40
2022-12-16T16:21:41.700Z,-0.50
2022-12-16T16:24:28.208Z,-0.50
2022-12-16T16:27:14.028Z,-0.50
2022-12-16T16:29:59.380Z,-0.60
2022-12-16T16:32:44.464Z,-0.60
2022-12-16T16:35:32.169Z,-0.60
2022-12-16T16:38:18.785Z,-0.70
2022-12-16T16:41:04.329Z,-0.70
2022-12-16T16:44:09.179Z,-0.70
2022-12-16T16:46:58.630Z,-0.80
2022-12-16T16:49:47.461Z,-0.80
2022-12-16T16:52:34.252Z,-0.80
2022-12-16T16:55:19.456Z,-0.80
2022-12-16T16:58:04.921Z,-0.90
2022-12-16T17:00:50.131Z,-0.90
2022-12-16T17:03:35.984Z,-0.90
2022-12-16T17:06:21.717Z,-1.00
2022-12-16T17:09:06.733Z,-1.00
2022-12-16T17:11:52.326Z,-1.00
2022-12-16T17:14:38.598Z,-1.10
2022-12-16T17:17:24.566Z,-1.10
2022-12-16T17:20:09.776Z,-1.10
2022-12-16T17:22:57.903Z,-1.10
2022-12-16T17:25:43.083Z,-1.20
2022-12-16T17:28:29.190Z,-1.20
2022-12-16T17:31:14.405Z,-1.10
2022-12-16T17:34:02.310Z,-1.20
2022-12-16T17:36:47.401Z,-1.20
2022-12-16T17:39:32.563Z,-1.20
2022-12-16T17:42:17.981Z,-1.30
2022-12-16T17:45:05.988Z,-1.30
2022-12-16T17:47:51.401Z,-1.30
2022-12-16T17:50:36.739Z,-1.30
2022-12-16T17:53:24.322Z,-1.40
2022-12-16T17:56:09.271Z,-1.40
2022-12-16T17:58:56.092Z,-1.40
2022-12-16T18:01:41.601Z,-1.50
2022-12-16T18:04:27.051Z,-1.50
2022-12-16T18:07:12.190Z,-1.60
2022-12-16T18:09:57.511Z,-1.60
2022-12-16T18:12:42.621Z,-1.60
2022-12-16T18:15:30.432Z,-1.60
2022-12-16T18:18:15.808Z,-1.70
2022-12-16T18:21:00.972Z,-1.60
2022-12-16T18:23:48.310Z,-1.60
2022-12-16T18:26:33.795Z,-1.70
2022-12-16T18:29:18.765Z,-1.70
2022-12-16T18:32:03.975Z,-1.70
2022-12-16T18:34:49.312Z,-1.80
2022-12-16T18:37:34.469Z,-1.90
2022-12-16T18:40:19.604Z,-1.90
2022-12-16T18:43:04.898Z,-2.10
2022-12-16T18:45:50.340Z,-2.20
2022-12-16T18:48:35.438Z,-2.30
2022-12-16T18:51:20.914Z,-2.30
2022-12-16T18:54:08.403Z,-2.20
2022-12-16T18:56:53.461Z,-2.20
2022-12-16T18:59:38.776Z,-2.30
2022-12-16T19:02:24.216Z,-2.30
2022-12-16T19:05:09.696Z,-2.30
2022-12-16T19:07:54.904Z,-2.40
2022-12-16T19:10:40.117Z,-2.40
2022-12-16T19:13:25.352Z,-2.50
2022-12-16T19:16:13.430Z,-2.50
2022-12-16T19:18:58.780Z,-2.50
2022-12-16T19:21:49.816Z,-2.60
2022-12-16T19:24:37.341Z,-2.60
2022-12-16T19:27:22.545Z,-2.60
2022-12-16T19:30:08.022Z,-2.70
2022-12-16T19:32:54.502Z,-2.70
2022-12-16T19:35:41.383Z,-2.70
2022-12-16T19:38:30.742Z,-2.70
2022-12-16T19:41:15.886Z,-2.80
2022-12-16T19:44:05.692Z,-2.90
2022-12-16T19:46:51.945Z,-2.90
2022-12-16T19:52:42.469Z,-2.90
2022-12-16T19:55:27.883Z,-2.90
2022-12-16T19:58:13.320Z,-3.00
2022-12-16T20:00:58.352Z,-3.00
2022-12-16T20:03:44.077Z,-3.00
2022-12-16T20:06:29.758Z,-3.00
2022-12-16T20:09:15.454Z,-3.00
2022-12-16T20:12:01.184Z,-3.00
2022-12-16T20:14:46.425Z,-3.10
2022-12-16T20:17:31.899Z,-3.10
2022-12-16T20:20:16.923Z,-3.10
2022-12-16T20:23:02.037Z,-3.20
2022-12-16T20:25:47.363Z,-3.10
2022-12-16T20:28:34.926Z,-3.20
2022-12-16T20:31:20.483Z,-3.20
2022-12-16T20:34:10.997Z,-3.10
2022-12-16T20:36:56.626Z,-3.20
2022-12-16T20:39:41.991Z,-3.20
2022-12-16T20:42:27.319Z,-3.20
2022-12-16T20:45:12.341Z,-3.30
2022-12-16T20:47:57.515Z,-3.40
2022-12-16T20:50:42.697Z,-3.40
2022-12-16T20:53:27.924Z,-3.40
2022-12-16T20:56:18.506Z,-3.40
2022-12-16T20:59:03.812Z,-3.50
2022-12-16T21:02:21.120Z,-3.50
2022-12-16T21:04:57.214Z,-3.50
2022-12-16T21:07:42.401Z,-3.50
2022-12-16T21:10:30.021Z,-3.60
2022-12-16T21:13:15.052Z,-3.60
2022-12-16T21:15:59.998Z,-3.60
2022-12-16T21:18:45.471Z,-3.70
2022-12-16T21:21:30.809Z,-3.70
2022-12-16T21:24:15.775Z,-3.70
2022-12-16T21:27:01.117Z,-3.70
2022-12-16T21:29:46.394Z,-3.70
2022-12-16T21:32:31.432Z,-3.70
2022-12-16T21:35:16.817Z,-3.70
2022-12-16T21:38:03.181Z,-3.80
2022-12-16T21:40:48.257Z,-3.70
2022-12-16T21:43:37.194Z,-3.80
2022-12-16T21:46:22.699Z,-3.90
2022-12-16T21:49:07.761Z,-3.90
2022-12-16T21:51:53.003Z,-3.90
2022-12-16T21:54:41.885Z,-4.00
2022-12-16T21:57:26.946Z,-3.90
2022-12-16T22:00:12.111Z,-3.90
2022-12-16T22:03:00.092Z,-3.90
2022-12-16T22:05:45.415Z,-3.90
2022-12-16T22:08:30.624Z,-3.90
2022-12-16T22:11:16.116Z,-3.90
2022-12-16T22:14:01.388Z,-4.00
2022-12-16T22:16:46.535Z,-4.10
2022-12-16T22:19:31.750Z,-4.00
2022-12-16T22:22:17.299Z,-4.20
2022-12-16T22:25:02.370Z,-4.20
2022-12-16T22:27:47.787Z,-4.30
2022-12-16T22:30:33.358Z,-4.30
2022-12-16T22:33:18.366Z,-4.30
2022-12-16T22:36:03.499Z,-4.30
2022-12-16T22:38:51.965Z,-4.40
2022-12-16T22:41:37.243Z,-4.40
2022-12-16T22:44:22.474Z,-4.50
2022-12-16T22:47:07.756Z,-4.60
2022-12-16T22:49:55.958Z,-4.60
2022-12-16T22:52:41.241Z,-4.70
2022-12-16T22:55:26.564Z,-4.70
2022-12-16T22:58:14.843Z,-4.70
2022-12-16T23:01:00.127Z,-4.80
2022-12-16T23:03:45.424Z,-4.90
2022-12-16T23:06:30.698Z,-5.10
2022-12-16T23:09:15.849Z,-5.10
2022-12-16T23:12:01.444Z,-5.20
2022-12-16T23:14:49.493Z,-5.20
2022-12-16T23:17:34.634Z,-5.20
2022-12-16T23:20:19.744Z,-5.30
2022-12-16T23:23:04.990Z,-5.40
2022-12-16T23:25:50.285Z,-5.40
2022-12-16T23:28:35.280Z,-5.50
2022-12-16T23:31:20.682Z,-5.50
2022-12-16T23:32:29.868Z,-2.90
2022-12-16T23:34:05.849Z,-5.50
2022-12-16T23:36:50.807Z,-5.50
2022-12-16T23:39:38.634Z,-5.50
2022-12-16T23:42:23.878Z,-5.60
2022-12-16T23:45:09.740Z,-5.60
2022-12-16T23:47:54.756Z,-5.70
2022-12-16T23:50:41.322Z,-5.70
2022-12-16T23:53:27.937Z,-5.60
2022-12-16T23:56:13.665Z,-5.60
2022-12-16T23:59:12.689Z,-5.50
